createdAt,value
2022-08-10T00:00:39.807Z,4.60
2022-08-10T00:05:43.163Z,4.68
2022-08-10T00:10:45.500Z,4.88
2022-08-10T00:15:53.848Z,5.03
2022-08-10T00:20:56.463Z,4.80
2022-08-10T00:25:58.126Z,4.80
2022-08-10T00:30:59.879Z,4.78
2022-08-10T00:36:01.504Z,4.78
2022-08-10T00:41:03.180Z,5.28
2022-08-10T00:46:04.968Z,4.80
2022-08-10T00:51:06.797Z,4.93
2022-08-10T00:57:14.174Z,5.20
2022-08-10T01:02:08.858Z,5.20
2022-08-10T01:07:27.294Z,5.28
2022-08-10T01:12:40.367Z,5.00
2022-08-10T01:18:20.390Z,5.30
2022-08-10T01:23:39.796Z,5.40
2022-08-10T01:28:55.545Z,4.85
2022-08-10T01:34:02.875Z,5.20
2022-08-10T01:39:06.390Z,5.22
2022-08-10T01:44:15.124Z,5.45
2022-08-10T01:49:20.200Z,5.30
2022-08-10T01:54:25.796Z,5.80
2022-08-10T01:59:34.976Z,5.28
2022-08-10T02:04:40.734Z,5.43
2022-08-10T02:09:45.874Z,5.85
2022-08-10T02:14:54.411Z,5.90
2022-08-10T02:19:59.844Z,6.22
2022-08-10T02:25:02.929Z,5.63
2022-08-10T02:30:06.456Z,5.90
2022-08-10T02:35:13.935Z,6.03
2022-08-10T02:45:12.378Z,6.10
2022-08-10T02:45:52.699Z,5.82
2022-08-10T02:50:59.244Z,6.20
2022-08-10T02:56:06.582Z,6.18
2022-08-10T03:01:14.360Z,6.25
2022-08-10T03:06:20.917Z,6.67
2022-08-10T03:12:36.228Z,6.78
2022-08-10T03:16:48.950Z,6.70
2022-08-10T03:21:53.151Z,6.50
2022-08-10T03:26:55.826Z,6.90
2022-08-10T03:31:58.599Z,7.32
2022-08-10T03:37:00.438Z,7.15
2022-08-10T03:42:06.102Z,7.35
2022-08-10T03:47:16.429Z,7.18
2022-08-10T03:52:19.880Z,7.22
2022-08-10T03:57:22.072Z,7.15
2022-08-10T04:02:43.419Z,6.82
2022-08-10T04:07:46.966Z,7.20
2022-08-10T04:12:48.587Z,6.70
2022-08-10T04:18:05.019Z,7.78
2022-08-10T04:23:16.406Z,7.43
2022-08-10T04:28:19.211Z,7.20
2022-08-10T04:33:22.763Z,7.00
2022-08-10T04:38:27.819Z,7.40
2022-08-10T04:43:29.735Z,7.10
2022-08-10T04:48:42.343Z,7.10
2022-08-10T04:54:06.028Z,5.90
2022-08-10T04:59:11.052Z,6.18
2022-08-10T05:04:35.904Z,6.40
2022-08-10T05:09:34.163Z,5.18
2022-08-10T05:14:55.760Z,6.43
2022-08-10T05:20:04.988Z,7.28
2022-08-10T05:25:11.263Z,7.18
2022-08-10T05:30:17.427Z,6.93
2022-08-10T05:35:19.291Z,6.70
2022-08-10T05:40:22.644Z,5.53
2022-08-10T05:45:27.964Z,6.43
2022-08-10T05:50:34.817Z,6.00
2022-08-10T05:55:36.507Z,5.82
2022-08-10T06:00:49.648Z,5.50
2022-08-10T06:05:54.733Z,5.72
2022-08-10T06:12:25.694Z,5.05
2022-08-10T06:16:21.979Z,5.72
2022-08-10T06:21:24.061Z,5.35
2022-08-10T06:26:25.771Z,5.53
2022-08-10T06:31:35.263Z,5.38
2022-08-10T06:36:53.150Z,5.75
2022-08-10T06:42:15.892Z,8.05
2022-08-10T06:47:23.338Z,7.45
2022-08-10T06:52:26.499Z,6.55
2022-08-10T06:57:31.482Z,6.05
2022-08-10T07:02:56.430Z,5.03
2022-08-10T07:08:01.063Z,7.10
2022-08-10T07:13:04.273Z,5.72
2022-08-10T07:18:07.261Z,4.63
2022-08-10T07:23:58.221Z,4.53
2022-08-10T07:28:35.434Z,4.57
2022-08-10T07:33:39.988Z,4.60
2022-08-10T07:38:43.411Z,3.13
2022-08-10T07:43:46.907Z,4.45
2022-08-10T07:49:00.197Z,2.88
2022-08-10T07:54:06.259Z,3.10
2022-08-10T07:59:11.965Z,3.70
2022-08-10T08:04:14.940Z,4.60
2022-08-10T08:09:19.350Z,4.07
2022-08-10T08:14:22.763Z,3.83
2022-08-10T08:19:28.201Z,3.72
2022-08-10T08:24:38.253Z,3.70
2022-08-10T08:29:43.531Z,3.60
2022-08-10T08:34:46.438Z,4.30
2022-08-10T08:39:48.636Z,3.38
2022-08-10T08:45:28.365Z,3.13
2022-08-10T08:50:57.114Z,3.42
2022-08-10T08:56:19.071Z,2.83
2022-08-10T09:01:43.618Z,3.40
2022-08-10T09:08:00.670Z,2.70
2022-08-10T09:13:01.457Z,3.00
2022-08-10T09:18:05.889Z,2.88
2022-08-10T09:24:01.776Z,3.10
2022-08-10T09:29:12.588Z,3.88
2022-08-10T09:36:29.809Z,2.95
2022-08-10T09:40:57.001Z,3.17
2022-08-10T09:45:42.430Z,3.15
2022-08-10T09:51:34.922Z,3.00
2022-08-10T09:57:44.747Z,2.75
2022-08-10T10:02:57.816Z,2.63
2022-08-10T10:08:11.992Z,2.60
2022-08-10T10:13:44.762Z,2.78
2022-08-10T10:19:15.613Z,2.60
2022-08-10T10:24:30.304Z,2.63
2022-08-10T10:29:58.440Z,2.90
2022-08-10T10:35:18.974Z,2.83
2022-08-10T10:40:24.163Z,2.95
2022-08-10T10:45:49.919Z,2.90
2022-08-10T10:51:27.438Z,2.80
2022-08-10T10:56:59.950Z,3.15
2022-08-10T11:02:02.499Z,2.80
2022-08-10T11:07:31.646Z,2.72
2022-08-10T11:12:50.911Z,2.75
2022-08-10T11:17:59.270Z,2.50
2022-08-10T11:23:10.111Z,2.60
2022-08-10T11:28:29.815Z,2.42
2022-08-10T11:39:21.615Z,2.67
2022-08-10T11:44:32.289Z,2.75
2022-08-10T11:49:39.755Z,2.30
2022-08-10T11:54:47.064Z,2.22
2022-08-10T11:59:59.307Z,1.90
2022-08-10T12:05:52.569Z,2.80
2022-08-10T12:10:57.749Z,2.50
2022-08-10T12:16:09.649Z,2.60
2022-08-10T12:21:21.651Z,2.60
2022-08-10T12:26:35.839Z,2.40
2022-08-10T12:31:51.618Z,2.20
2022-08-10T12:37:19.193Z,2.42
2022-08-10T12:42:38.709Z,2.22
2022-08-10T12:47:59.146Z,2.20
2022-08-10T12:53:06.449Z,2.42
2022-08-10T12:58:57.239Z,2.30
2022-08-10T13:04:19.876Z,2.45
2022-08-10T13:09:14.337Z,2.90
2022-08-10T13:14:24.176Z,2.83
2022-08-10T13:19:29.184Z,2.28
2022-08-10T13:24:55.643Z,2.47
2022-08-10T13:30:07.006Z,2.10
2022-08-10T13:35:17.698Z,2.40
2022-08-10T13:40:20.853Z,1.98
2022-08-10T13:45:25.784Z,2.10
2022-08-10T13:50:33.516Z,2.22
2022-08-10T13:55:53.516Z,1.80
2022-08-10T14:00:59.569Z,2.10
2022-08-10T14:06:03.540Z,2.03
2022-08-10T14:11:12.556Z,2.30
2022-08-10T14:16:15.843Z,2.42
2022-08-10T14:21:17.840Z,2.03
2022-08-10T14:26:23.441Z,2.00
2022-08-10T14:31:31.231Z,1.90
2022-08-10T14:36:42.345Z,1.95
2022-08-10T14:42:02.673Z,1.67
2022-08-10T14:47:53.745Z,2.17
2022-08-10T14:52:39.803Z,2.25
2022-08-10T14:58:16.559Z,2.13
2022-08-10T15:03:49.440Z,2.15
2022-08-10T15:08:36.971Z,2.17
2022-08-10T15:13:44.917Z,2.10
2022-08-10T15:20:00.985Z,2.13
2022-08-10T15:24:52.097Z,2.08
2022-08-10T15:29:57.158Z,1.90
2022-08-10T15:35:20.801Z,1.80
2022-08-10T15:40:37.423Z,1.70
2022-08-10T15:46:00.033Z,1.73
2022-08-10T15:51:06.378Z,1.95
2022-08-10T15:56:15.244Z,1.73
2022-08-10T16:02:12.488Z,2.00
2022-08-10T16:07:06.089Z,1.97
2022-08-10T16:12:12.937Z,1.90
2022-08-10T16:17:16.294Z,1.63
2022-08-10T16:22:35.345Z,1.67
2022-08-10T16:27:40.045Z,1.80
2022-08-10T16:32:44.927Z,1.95
2022-08-10T16:37:56.625Z,1.90
2022-08-10T16:43:03.421Z,1.98
2022-08-10T16:48:08.967Z,1.80
2022-08-10T16:53:17.185Z,2.00
2022-08-10T16:58:25.367Z,2.17
2022-08-10T17:04:08.579Z,1.88
2022-08-10T17:09:00.695Z,2.10
2022-08-10T17:14:04.117Z,2.20
2022-08-10T17:19:15.684Z,2.05
2022-08-10T17:24:19.909Z,1.90
2022-08-10T17:29:58.002Z,1.92
2022-08-10T17:34:52.185Z,1.98
2022-08-10T17:40:07.873Z,2.20
2022-08-10T17:45:48.620Z,1.95
2022-08-10T17:50:50.218Z,2.30
2022-08-10T17:55:57.788Z,1.88
2022-08-10T18:01:38.399Z,2.00
2022-08-10T18:06:25.232Z,2.10
2022-08-10T18:11:34.719Z,2.20
2022-08-10T18:16:41.808Z,2.30
2022-08-10T18:21:47.722Z,2.08
2022-08-10T18:26:53.011Z,2.42
2022-08-10T18:31:57.724Z,2.45
2022-08-10T18:37:00.921Z,2.45
2022-08-10T18:42:24.571Z,2.30
2022-08-10T18:47:58.429Z,2.47
2022-08-10T18:53:11.913Z,2.70
2022-08-10T18:58:33.648Z,2.70
2022-08-10T19:03:54.371Z,2.90
2022-08-10T19:09:08.641Z,3.38
2022-08-10T19:14:41.088Z,3.38
2022-08-10T19:19:50.769Z,3.30
2022-08-10T19:24:58.126Z,3.63
2022-08-10T19:30:12.966Z,3.58
2022-08-10T19:36:03.868Z,3.40
2022-08-10T19:41:30.965Z,4.28
2022-08-10T19:47:12.050Z,3.70
2022-08-10T19:52:34.766Z,4.00
2022-08-10T19:57:46.577Z,4.43
2022-08-10T20:02:48.158Z,3.83
2022-08-10T20:08:19.130Z,4.57
2022-08-10T20:13:29.496Z,5.00
2022-08-10T20:18:37.411Z,4.68
2022-08-10T20:23:55.735Z,4.65
2022-08-10T20:29:16.406Z,4.40
2022-08-10T20:35:04.626Z,4.75
2022-08-10T20:40:15.671Z,4.00
2022-08-10T20:45:46.462Z,4.25
2022-08-10T20:50:58.901Z,4.90
2022-08-10T20:56:26.502Z,4.45
2022-08-10T21:02:05.906Z,4.50
2022-08-10T21:07:58.282Z,4.72
2022-08-10T21:13:09.378Z,5.68
2022-08-10T21:18:43.977Z,4.75
2022-08-10T21:23:56.920Z,4.47
2022-08-10T21:29:20.620Z,4.30
2022-08-10T21:34:31.739Z,4.65
2022-08-10T21:39:57.019Z,4.50
2022-08-10T21:51:24.458Z,4.70
2022-08-10T21:57:43.546Z,5.15
2022-08-10T22:03:05.955Z,4.35
2022-08-10T22:08:29.333Z,4.70
2022-08-10T22:13:52.423Z,4.65
2022-08-10T22:19:17.860Z,4.63
2022-08-10T22:25:16.410Z,5.40
2022-08-10T22:30:39.110Z,4.57
2022-08-10T22:31:27.336Z,4.38
2022-08-10T22:36:09.635Z,5.20
2022-08-10T22:41:52.022Z,4.38
2022-08-10T22:47:12.319Z,4.75
2022-08-10T22:52:20.993Z,4.32
2022-08-10T22:57:42.046Z,4.60
2022-08-10T23:02:52.423Z,4.57
2022-08-10T23:08:29.740Z,5.22
2022-08-10T23:13:37.731Z,4.78
2022-08-10T23:19:00.807Z,4.65
2022-08-10T23:24:07.091Z,4.97
2022-08-10T23:29:13.472Z,5.18
2022-08-10T23:34:22.336Z,5.15
2022-08-10T23:39:32.575Z,5.20
2022-08-10T23:44:38.208Z,5.05
2022-08-10T23:49:41.380Z,4.95
2022-08-10T23:55:06.162Z,4.75
